Terminal Aerodrome Forecast
Issued by NWS

Home | Current Version | Previous Version | Text Only | Print | Product List | Glossary On
Versions: 1 2 3 4 5 6 7 8 9 10 11 12
000
FTUS46 KPDT 181100
TAFPSC
TAF
KPSC 181139Z 1812/1912 VRB05KT P6SM SCT150 BKN180
     FM181800 22007KT P6SM SCT100 BKN150
     FM182000 22012G20KT P6SM SCT100 BKN120
     FM190300 27010KT P6SM BKN070 BKN090=

USA.gov is the U.S. government's official web portal to all federal, state and local government web resources and services.